Time;durP1;ratioP1;P1;durP2;ratioP2;P2;SDS_P1;SDS_P2;PMS_P1;PMS_P2;Temp;Humidity;BMP_temperature;BMP_pressure;BME280_temperature;BME280_humidity;BME280_pressure;Samples;Min_cycle;Max_cycle;Signal;HPM_P1;HPM_P2
2022/07/04 00:01:26;;;;;;;26.20;24.63;;;22.70;66.20;;;;;;5009705;28;20485;-71
2022/07/04 00:03:53;;;;;;;25.70;24.40;;;22.70;66.10;;;;;;5010603;28;20497;-71
2022/07/04 00:06:20;;;;;;;25.30;24.07;;;22.70;66.10;;;;;;5007990;28;20497;-71
2022/07/04 00:08:47;;;;;;;26.20;24.80;;;22.70;66.20;;;;;;5009409;28;20489;-71
2022/07/04 00:11:15;;;;;;;27.10;25.60;;;22.80;65.60;;;;;;5008071;28;20825;-71
2022/07/04 00:13:42;;;;;;;27.07;25.57;;;22.80;65.50;;;;;;5010215;28;20548;-71
2022/07/04 00:16:09;;;;;;;26.40;25.10;;;22.80;64.90;;;;;;5008713;28;20560;-71
2022/07/04 00:18:36;;;;;;;26.47;25.03;;;22.90;64.60;;;;;;5008419;28;20555;-71
2022/07/04 00:21:03;;;;;;;25.30;23.90;;;22.90;64.70;;;;;;5008098;28;20880;-71
2022/07/04 00:23:30;;;;;;;25.20;23.73;;;22.90;64.60;;;;;;5007353;28;21002;-71
2022/07/04 00:25:57;;;;;;;25.00;23.70;;;22.80;64.60;;;;;;5006904;28;20464;-71
2022/07/04 00:28:25;;;;;;;24.80;23.40;;;22.80;64.70;;;;;;5008991;28;20518;-71
2022/07/04 00:30:52;;;;;;;24.83;23.43;;;22.70;64.70;;;;;;5008103;28;20474;-71
2022/07/04 00:33:19;;;;;;;25.33;23.73;;;22.60;65.10;;;;;;5008150;28;20469;-71
2022/07/04 00:35:46;;;;;;;25.77;24.37;;;22.50;65.30;;;;;;5000891;28;20457;-71
2022/07/04 00:38:13;;;;;;;25.70;24.30;;;22.50;65.20;;;;;;5010023;28;20581;-71
2022/07/04 00:40:40;;;;;;;25.73;24.33;;;22.20;66.00;;;;;;5005836;28;20588;-71
2022/07/04 00:43:07;;;;;;;26.27;24.20;;;22.10;66.00;;;;;;5005126;28;20560;-71
2022/07/04 00:45:35;;;;;;;25.90;24.40;;;22.10;66.30;;;;;;5003548;28;20465;-72
2022/07/04 00:48:02;;;;;;;26.13;24.73;;;22.10;66.30;;;;;;5008995;28;20495;-71
2022/07/04 00:50:29;;;;;;;26.37;24.60;;;22.20;66.00;;;;;;5005573;28;20480;-71
2022/07/04 00:52:56;;;;;;;26.03;24.60;;;22.30;65.60;;;;;;5006911;28;20619;-73
2022/07/04 00:55:24;;;;;;;26.50;25.00;;;22.40;65.30;;;;;;5009324;28;20869;-71
2022/07/04 00:57:51;;;;;;;25.47;24.13;;;22.20;65.50;;;;;;5006208;28;20568;-71
2022/07/04 01:00:19;;;;;;;24.60;23.23;;;22.10;66.00;;;;;;5008325;28;20461;-71
2022/07/04 01:02:48;;;;;;;25.10;23.80;;;22.00;66.40;;;;;;5006093;28;20560;-72
2022/07/04 01:05:15;;;;;;;26.97;25.07;;;22.00;66.40;;;;;;5008550;28;20548;-71
2022/07/04 01:07:43;;;;;;;25.60;24.20;;;22.00;66.10;;;;;;5006787;28;20491;-71
2022/07/04 01:10:10;;;;;;;25.53;24.03;;;22.00;66.20;;;;;;5006729;28;20480;-70
2022/07/04 01:12:38;;;;;;;25.83;24.37;;;21.80;66.70;;;;;;5008269;28;20551;-71
2022/07/04 01:15:06;;;;;;;25.20;23.80;;;21.90;66.60;;;;;;5006460;28;20548;-72
2022/07/04 01:17:34;;;;;;;26.60;24.80;;;22.00;66.50;;;;;;5006300;28;21057;-71
2022/07/04 01:20:02;;;;;;;25.60;24.20;;;22.00;66.50;;;;;;5007785;28;20827;-71
2022/07/04 01:22:30;;;;;;;24.80;23.50;;;21.90;66.80;;;;;;5008628;28;20464;-71
2022/07/04 01:24:57;;;;;;;24.97;23.50;;;21.80;66.90;;;;;;5007351;28;20463;-71
2022/07/04 01:27:24;;;;;;;24.83;23.40;;;21.80;67.00;;;;;;5005583;28;20495;-71
2022/07/04 01:29:51;;;;;;;24.90;23.60;;;21.70;67.30;;;;;;5002789;28;20523;-71
2022/07/04 01:32:18;;;;;;;24.50;23.30;;;21.70;67.40;;;;;;5007799;28;20491;-71
2022/07/04 01:34:45;;;;;;;25.60;24.10;;;21.80;67.40;;;;;;5004937;28;20462;-71
2022/07/04 01:37:12;;;;;;;24.90;23.40;;;21.80;67.50;;;;;;5007200;28;21031;-71
2022/07/04 01:39:40;;;;;;;24.93;23.63;;;21.80;67.20;;;;;;5004829;28;20556;-70
2022/07/04 01:42:08;;;;;;;24.50;23.13;;;21.80;67.10;;;;;;5007869;28;21014;-71
2022/07/04 01:44:35;;;;;;;25.50;24.00;;;21.70;67.40;;;;;;5004233;28;20902;-70
2022/07/04 01:47:03;;;;;;;25.90;24.30;;;21.60;67.50;;;;;;5007568;28;20879;-71
2022/07/04 01:49:30;;;;;;;25.60;24.10;;;21.60;67.50;;;;;;5003519;28;20516;-71
2022/07/04 01:51:57;;;;;;;26.73;25.10;;;21.60;67.60;;;;;;5007715;28;20542;-71
2022/07/04 01:54:24;;;;;;;25.07;23.67;;;21.50;67.70;;;;;;5006974;28;20542;-72
2022/07/04 01:56:53;;;;;;;25.47;23.97;;;21.40;68.00;;;;;;5007788;28;20467;-72
2022/07/04 02:01:29;;;;;;;25.73;24.20;;;21.40;68.20;;;;;;5005280;28;20547;-71
2022/07/04 02:02:07;;;;;;;25.10;23.70;;;21.40;68.00;;;;;;5007559;28;20458;-71
2022/07/04 02:04:34;;;;;;;25.27;23.47;;;21.40;68.10;;;;;;5007465;28;20452;-71
2022/07/04 02:07:02;;;;;;;26.20;24.70;;;21.40;68.10;;;;;;5007998;28;20504;-70
2022/07/04 02:09:30;;;;;;;25.40;23.80;;;21.30;68.30;;;;;;5003003;28;20484;-69
2022/07/04 02:14:43;;;;;;;25.37;23.87;;;21.30;68.20;;;;;;5005006;28;20471;-69
2022/07/04 02:17:10;;;;;;;25.00;23.60;;;21.30;68.60;;;;;;5006618;28;20560;-69
2022/07/04 02:19:37;;;;;;;25.60;24.10;;;21.20;68.60;;;;;;5003615;28;20457;-69
2022/07/04 02:22:05;;;;;;;25.07;23.60;;;21.10;68.80;;;;;;5008769;28;20473;-69
2022/07/04 02:24:32;;;;;;;25.00;23.60;;;21.20;68.60;;;;;;5002774;28;20462;-69
2022/07/04 02:27:00;;;;;;;24.70;23.30;;;21.10;68.70;;;;;;5006031;28;20579;-69
2022/07/04 02:29:27;;;;;;;27.57;25.87;;;21.00;69.10;;;;;;5004882;28;20475;-69
2022/07/04 02:31:54;;;;;;;25.93;24.50;;;20.90;69.30;;;;;;5008021;28;20467;-69
2022/07/04 02:34:21;;;;;;;26.10;24.50;;;20.80;69.60;;;;;;5005412;28;21118;-69
2022/07/04 02:36:48;;;;;;;28.40;26.50;;;20.80;69.40;;;;;;5006011;28;20888;-69
2022/07/04 02:39:15;;;;;;;25.40;23.83;;;20.80;69.30;;;;;;5003311;28;20467;-68
2022/07/04 02:41:42;;;;;;;25.27;23.70;;;20.80;69.50;;;;;;4999146;28;20906;-69
2022/07/04 02:44:10;;;;;;;25.47;23.70;;;20.70;69.80;;;;;;5004090;28;20491;-68
2022/07/04 02:46:38;;;;;;;25.50;23.97;;;20.70;69.70;;;;;;5004888;28;20463;-69
2022/07/04 02:49:05;;;;;;;27.90;26.30;;;20.70;69.70;;;;;;5006604;28;20492;-69
2022/07/04 02:51:32;;;;;;;26.43;24.73;;;20.70;69.80;;;;;;5005714;28;20554;-69
2022/07/04 02:53:59;;;;;;;25.80;24.30;;;20.70;69.70;;;;;;5005885;28;20553;-69
2022/07/04 02:56:26;;;;;;;25.20;23.70;;;20.70;69.70;;;;;;5005999;28;20991;-69
2022/07/04 02:58:54;;;;;;;26.27;24.60;;;20.80;69.40;;;;;;5005908;28;20574;-69
2022/07/04 03:01:22;;;;;;;26.97;25.10;;;20.80;69.30;;;;;;5004435;28;20558;-69
2022/07/04 03:03:49;;;;;;;26.20;24.80;;;20.80;69.20;;;;;;5000076;28;21123;-69
2022/07/04 03:06:16;;;;;;;26.70;24.63;;;20.80;69.30;;;;;;5005185;28;20459;-69
2022/07/04 03:08:44;;;;;;;25.57;24.17;;;20.80;69.30;;;;;;5001802;28;20563;-69
2022/07/04 03:11:11;;;;;;;28.37;26.67;;;20.80;69.30;;;;;;5006443;28;21097;-69
2022/07/04 03:13:39;;;;;;;30.53;28.70;;;20.70;69.70;;;;;;5003758;28;20545;-69
2022/07/04 03:16:06;;;;;;;26.40;24.70;;;20.50;70.40;;;;;;5005992;28;20463;-69
2022/07/04 03:18:35;;;;;;;27.20;25.50;;;20.40;70.90;;;;;;5005258;28;20477;-69
2022/07/04 03:21:04;;;;;;;26.50;24.80;;;20.40;70.80;;;;;;5005494;28;20457;-69
2022/07/04 03:23:31;;;;;;;26.90;25.10;;;20.20;71.20;;;;;;5007326;28;20467;-71
2022/07/04 03:25:58;;;;;;;28.47;26.70;;;20.10;71.60;;;;;;5011147;28;20541;-71
2022/07/04 03:28:25;;;;;;;33.07;31.07;;;20.20;71.40;;;;;;5009330;28;20590;-70
2022/07/04 03:30:52;;;;;;;27.50;25.90;;;20.20;71.20;;;;;;5010071;28;20515;-69
2022/07/04 03:33:19;;;;;;;28.93;27.17;;;20.30;71.00;;;;;;5008858;28;20733;-69
2022/07/04 03:35:47;;;;;;;27.07;25.37;;;20.10;71.40;;;;;;5009177;28;20939;-69
2022/07/04 03:38:14;;;;;;;28.80;27.10;;;20.10;71.40;;;;;;5010405;28;20516;-69
2022/07/04 03:40:41;;;;;;;26.77;25.07;;;20.10;71.40;;;;;;5009128;28;20532;-69
2022/07/04 03:43:09;;;;;;;28.13;26.13;;;20.10;71.90;;;;;;5005955;28;20454;-69
2022/07/04 03:45:36;;;;;;;26.53;24.70;;;20.20;71.50;;;;;;5008360;28;20472;-68
2022/07/04 03:48:03;;;;;;;27.23;25.53;;;20.20;71.20;;;;;;5010649;28;20565;-69
2022/07/04 03:50:30;;;;;;;27.07;25.37;;;20.30;71.10;;;;;;5008075;28;20544;-69
2022/07/04 03:52:59;;;;;;;26.53;24.93;;;20.30;71.10;;;;;;5007273;28;20459;-69
2022/07/04 03:55:26;;;;;;;26.83;25.23;;;20.30;71.00;;;;;;5007435;28;20473;-69
2022/07/04 03:57:53;;;;;;;26.63;24.93;;;20.30;71.20;;;;;;5009966;28;20565;-69
2022/07/04 04:00:20;;;;;;;30.10;28.13;;;20.30;71.00;;;;;;5008166;28;20463;-68
2022/07/04 04:02:47;;;;;;;29.00;27.27;;;20.30;70.70;;;;;;5009535;28;20947;-70
2022/07/04 04:05:30;;;;;;;26.33;24.63;;;20.20;71.10;;;;;;5010398;28;20459;-70
2022/07/04 04:08:00;;;;;;;30.33;28.43;;;20.10;71.50;;;;;;5008780;28;20840;-69
2022/07/04 04:10:28;;;;;;;30.17;28.37;;;20.20;71.20;;;;;;5007332;28;20580;-69
2022/07/04 04:12:55;;;;;;;27.40;25.73;;;20.30;70.90;;;;;;5007666;28;20551;-69
2022/07/04 04:15:22;;;;;;;29.00;27.20;;;20.30;71.00;;;;;;5006604;28;20794;-69
2022/07/04 04:17:49;;;;;;;27.70;25.70;;;20.40;70.50;;;;;;5009611;28;20483;-69
2022/07/04 04:20:16;;;;;;;29.00;27.37;;;20.50;70.60;;;;;;5007456;28;20468;-69
2022/07/04 04:22:43;;;;;;;29.27;27.37;;;20.50;70.50;;;;;;5007372;28;20470;-69
2022/07/04 04:25:12;;;;;;;29.90;27.90;;;20.60;69.80;;;;;;5009906;28;20498;-69
2022/07/04 04:27:39;;;;;;;30.57;28.83;;;20.60;69.90;;;;;;5007867;28;20487;-69
2022/07/04 04:30:07;;;;;;;27.57;25.90;;;20.70;70.00;;;;;;5008092;28;20514;-69
2022/07/04 04:32:34;;;;;;;32.10;30.00;;;20.70;69.90;;;;;;5004500;28;20468;-69
2022/07/04 04:35:01;;;;;;;27.30;25.80;;;20.70;69.70;;;;;;5009751;28;20501;-69
2022/07/04 04:37:28;;;;;;;28.77;27.07;;;20.80;69.40;;;;;;5005752;28;20585;-69
2022/07/04 04:39:54;;;;;;;32.10;30.10;;;20.90;69.10;;;;;;5007614;28;20455;-72
2022/07/04 04:42:23;;;;;;;30.20;28.20;;;20.90;69.40;;;;;;5005045;28;20653;-69
2022/07/04 04:44:50;;;;;;;28.00;26.40;;;20.90;69.50;;;;;;5000853;28;20456;-72
2022/07/04 04:47:17;;;;;;;27.83;26.23;;;21.00;69.10;;;;;;5004263;28;21112;-72
2022/07/04 04:49:44;;;;;;;29.60;27.70;;;21.10;69.10;;;;;;5001484;28;20468;-73
2022/07/04 04:52:11;;;;;;;29.33;27.77;;;21.30;68.40;;;;;;5007013;28;20491;-72
2022/07/04 04:54:38;;;;;;;31.27;29.17;;;21.30;68.50;;;;;;5005802;28;20473;-77
2022/07/04 04:57:06;;;;;;;28.20;26.10;;;21.30;68.30;;;;;;5004681;28;20471;-74
2022/07/04 04:59:35;;;;;;;29.43;27.53;;;21.30;67.80;;;;;;5010546;28;20547;-77
2022/07/04 05:02:02;;;;;;;27.83;26.33;;;21.50;67.30;;;;;;5010158;28;20908;-75
2022/07/04 05:04:29;;;;;;;31.57;29.87;;;21.50;67.20;;;;;;5013678;28;20568;-80
2022/07/04 05:06:56;;;;;;;31.40;29.07;;;21.50;67.30;;;;;;5010964;28;20946;-71
2022/07/04 05:09:23;;;;;;;32.70;30.80;;;21.60;67.50;;;;;;5004457;28;20475;-70
2022/07/04 05:11:50;;;;;;;31.53;29.73;;;21.60;68.90;;;;;;5008903;28;20579;-72
2022/07/04 05:14:17;;;;;;;29.00;27.30;;;21.70;71.30;;;;;;5005542;28;21001;-73
2022/07/04 05:16:46;;;;;;;27.80;26.20;;;21.80;67.90;;;;;;5010155;28;20890;-73
2022/07/04 05:19:13;;;;;;;32.50;30.57;;;21.70;67.60;;;;;;5005064;28;20597;-74
2022/07/04 05:21:40;;;;;;;28.97;27.37;;;21.80;67.50;;;;;;5003519;28;20456;-74
2022/07/04 05:24:07;;;;;;;30.20;28.50;;;21.70;67.60;;;;;;5007454;28;20576;-73
2022/07/04 05:26:34;;;;;;;28.33;26.73;;;21.70;67.50;;;;;;5007918;28;20473;-73
2022/07/04 05:29:01;;;;;;;29.90;28.10;;;21.80;67.30;;;;;;5007196;28;20508;-72
2022/07/04 05:31:28;;;;;;;30.30;28.37;;;21.90;67.50;;;;;;5003767;28;20569;-73
2022/07/04 05:33:56;;;;;;;32.10;30.00;;;21.90;67.30;;;;;;5007087;28;20487;-72
2022/07/04 05:36:24;;;;;;;27.80;26.20;;;21.90;67.50;;;;;;5008402;28;20460;-72
2022/07/04 05:38:51;;;;;;;29.53;27.73;;;22.00;67.60;;;;;;5005688;28;20504;-72
2022/07/04 05:41:18;;;;;;;28.93;27.33;;;22.00;67.60;;;;;;5007888;28;20460;-73
2022/07/04 05:43:45;;;;;;;30.17;28.17;;;22.00;66.90;;;;;;5023199;28;20478;-73
2022/07/04 05:46:12;;;;;;;30.47;28.67;;;22.10;66.00;;;;;;5007714;28;20459;-74
2022/07/04 05:48:39;;;;;;;27.60;25.90;;;22.20;65.50;;;;;;5004221;28;20492;-74
2022/07/04 05:51:07;;;;;;;27.60;26.03;;;22.20;65.80;;;;;;5007686;28;21574;-73
2022/07/04 05:53:34;;;;;;;29.40;27.70;;;22.40;65.70;;;;;;5014864;28;20975;-73
2022/07/04 05:56:03;;;;;;;28.80;27.00;;;22.40;64.60;;;;;;5007362;28;20568;-75
2022/07/04 05:58:30;;;;;;;30.60;28.70;;;22.40;64.40;;;;;;5008466;28;20481;-74
2022/07/04 06:00:57;;;;;;;31.43;29.63;;;22.30;63.70;;;;;;5008146;28;20923;-74
2022/07/04 06:03:24;;;;;;;30.80;29.10;;;22.10;64.50;;;;;;5007801;28;20468;-71
2022/07/04 06:05:51;;;;;;;30.90;29.10;;;21.80;65.30;;;;;;5006925;28;20549;-71
2022/07/04 06:08:19;;;;;;;30.63;28.80;;;21.60;65.60;;;;;;4997993;28;20990;-72
2022/07/04 06:10:47;;;;;;;30.50;28.80;;;21.70;65.70;;;;;;5008221;28;20488;-71
2022/07/04 06:13:14;;;;;;;29.27;27.50;;;22.00;65.10;;;;;;5009553;28;20919;-72
2022/07/04 06:15:41;;;;;;;28.07;26.23;;;22.00;64.80;;;;;;5007356;28;20556;-72
2022/07/04 06:18:08;;;;;;;29.13;26.90;;;22.10;64.60;;;;;;5006297;28;20518;-71
2022/07/04 06:20:35;;;;;;;28.33;26.60;;;22.30;64.10;;;;;;5006967;28;20460;-69
2022/07/04 06:23:02;;;;;;;29.93;27.83;;;22.40;63.60;;;;;;5008397;28;20482;-70
2022/07/04 06:25:30;;;;;;;29.67;27.90;;;22.40;63.30;;;;;;5006815;28;20462;-70
2022/07/04 06:27:58;;;;;;;29.20;27.50;;;22.20;63.80;;;;;;5006661;28;20536;-71
2022/07/04 06:30:32;;;;;;;30.60;28.90;;;22.10;63.90;;;;;;5007658;28;20948;-71
2022/07/04 06:33:00;;;;;;;28.13;26.43;;;22.30;63.80;;;;;;5008016;28;20459;-71
2022/07/04 06:35:47;;;;;;;29.37;27.77;;;22.40;63.80;;;;;;5008572;28;21087;-73
2022/07/04 06:38:17;;;;;;;30.57;28.77;;;22.50;63.20;;;;;;5014957;28;20571;-73
2022/07/04 06:40:45;;;;;;;29.90;28.00;;;22.60;62.70;;;;;;5044234;28;20535;-75
2022/07/04 06:43:12;;;;;;;28.10;26.60;;;22.40;63.30;;;;;;5033083;28;20473;-72
2022/07/04 06:45:39;;;;;;;28.23;26.33;;;22.20;63.80;;;;;;5001154;28;20497;-73
2022/07/04 06:48:07;;;;;;;28.70;26.90;;;22.30;64.20;;;;;;5005187;28;20565;-73
2022/07/04 06:50:35;;;;;;;33.33;31.43;;;22.10;64.60;;;;;;5025007;28;20481;-73
2022/07/04 06:53:04;;;;;;;32.63;30.43;;;22.30;64.20;;;;;;5020730;28;20594;-74
2022/07/04 06:55:37;;;;;;;28.40;26.63;;;22.70;63.40;;;;;;5025224;28;20482;-74
2022/07/04 06:58:06;;;;;;;29.10;27.20;;;22.70;62.90;;;;;;5018856;28;20595;-74
2022/07/04 07:00:33;;;;;;;28.37;26.73;;;22.60;63.10;;;;;;5021596;28;20964;-74
2022/07/04 07:03:01;;;;;;;29.83;27.70;;;22.40;63.80;;;;;;5014861;28;20544;-74
2022/07/04 07:05:28;;;;;;;31.33;29.20;;;22.60;63.30;;;;;;5013330;28;20995;-75
2022/07/04 07:07:56;;;;;;;28.20;26.40;;;22.90;62.80;;;;;;5025112;28;20485;-74
2022/07/04 07:10:23;;;;;;;31.60;29.80;;;23.10;62.20;;;;;;5021985;28;20592;-77
2022/07/04 07:12:50;;;;;;;31.10;29.20;;;23.30;61.80;;;;;;5018143;28;20566;-75
2022/07/04 07:15:19;;;;;;;31.13;29.03;;;23.30;61.60;;;;;;5019803;28;20472;-74
2022/07/04 07:17:47;;;;;;;28.47;26.77;;;23.40;61.20;;;;;;5024245;28;20489;-77
2022/07/04 07:20:14;;;;;;;30.60;28.70;;;23.20;61.80;;;;;;5017718;28;20460;-77
2022/07/04 07:22:42;;;;;;;27.43;25.80;;;23.10;62.00;;;;;;5020363;28;20467;-74
2022/07/04 07:25:10;;;;;;;31.00;28.90;;;23.30;61.70;;;;;;5025423;28;20536;-75
2022/07/04 07:27:37;;;;;;;31.67;29.60;;;23.30;61.80;;;;;;5025691;28;20579;-75
2022/07/04 07:30:04;;;;;;;29.60;27.80;;;23.50;61.50;;;;;;5025685;28;20475;-78
2022/07/04 07:32:33;;;;;;;28.90;27.00;;;23.70;60.80;;;;;;5024586;28;21055;-74
2022/07/04 07:35:00;;;;;;;29.77;28.07;;;24.00;60.00;;;;;;5022392;28;20548;-74
2022/07/04 07:37:27;;;;;;;29.40;27.40;;;24.00;59.90;;;;;;5018060;28;20512;-75
2022/07/04 07:39:56;;;;;;;30.60;28.70;;;24.00;60.10;;;;;;5014353;28;20539;-75
2022/07/04 07:42:26;;;;;;;28.87;27.17;;;24.00;60.20;;;;;;5020566;28;20450;-77
2022/07/04 07:44:56;;;;;;;29.53;27.73;;;23.90;60.20;;;;;;5026652;28;20854;-75
2022/07/04 07:47:23;;;;;;;29.70;28.00;;;24.00;60.20;;;;;;5016445;28;20894;-74
2022/07/04 07:49:52;;;;;;;33.20;31.40;;;24.00;60.00;;;;;;5039519;28;20542;-74
2022/07/04 07:52:19;;;;;;;28.80;27.10;;;24.00;60.20;;;;;;5046080;28;20487;-74
2022/07/04 07:54:49;;;;;;;28.43;26.73;;;23.90;60.10;;;;;;5047920;28;20547;-76
2022/07/04 07:57:16;;;;;;;27.37;25.77;;;23.60;61.20;;;;;;5046361;28;20502;-75
2022/07/04 07:59:42;;;;;;;30.80;28.90;;;23.70;61.20;;;;;;5038562;28;20498;-76
2022/07/04 08:02:09;;;;;;;28.83;27.03;;;23.90;60.50;;;;;;5045671;28;20536;-75
2022/07/04 08:04:37;;;;;;;30.60;29.00;;;23.60;61.10;;;;;;5045222;28;20510;-74
2022/07/04 08:07:06;;;;;;;28.77;27.13;;;23.50;61.30;;;;;;5044289;28;20539;-74
2022/07/04 08:09:34;;;;;;;28.43;26.67;;;23.50;61.10;;;;;;5048211;28;20570;-74
2022/07/04 08:12:02;;;;;;;31.07;29.37;;;23.70;61.10;;;;;;5048709;28;20518;-75
2022/07/04 08:14:29;;;;;;;29.93;28.23;;;23.80;60.70;;;;;;5050431;28;20552;-72
2022/07/04 08:16:57;;;;;;;29.03;27.23;;;23.70;60.90;;;;;;5048412;28;20475;-73
2022/07/04 08:19:25;;;;;;;30.33;28.40;;;23.60;61.30;;;;;;5046870;28;20466;-73
2022/07/04 08:21:52;;;;;;;28.00;26.30;;;23.60;61.70;;;;;;5049954;28;20478;-72
2022/07/04 08:24:21;;;;;;;29.30;27.63;;;23.70;61.20;;;;;;5050009;28;20460;-71
2022/07/04 08:26:49;;;;;;;29.40;27.60;;;23.60;61.40;;;;;;5049307;28;20467;-71
2022/07/04 08:29:16;;;;;;;29.20;27.30;;;23.80;61.10;;;;;;5047791;28;20972;-71
2022/07/04 08:31:43;;;;;;;28.43;26.53;;;23.90;61.30;;;;;;5049477;28;20562;-70
2022/07/04 08:34:10;;;;;;;28.83;27.00;;;23.80;61.20;;;;;;5046953;28;20893;-70
2022/07/04 08:36:37;;;;;;;28.80;27.20;;;23.30;62.30;;;;;;5045144;28;20569;-72
2022/07/04 08:39:05;;;;;;;31.30;29.40;;;23.00;63.10;;;;;;5047787;28;20486;-72
2022/07/04 08:41:38;;;;;;;29.40;27.43;;;23.00;63.60;;;;;;5048336;28;20548;-70
2022/07/04 08:44:10;;;;;;;30.00;28.30;;;23.00;63.60;;;;;;5047557;28;20459;-75
2022/07/04 08:46:39;;;;;;;30.10;28.50;;;23.50;62.80;;;;;;5043622;28;20997;-72
2022/07/04 08:49:12;;;;;;;29.33;27.70;;;23.90;61.80;;;;;;5003114;28;21014;-72
2022/07/04 08:51:52;;;;;;;28.17;26.60;;;24.10;60.80;;;;;;5007638;28;20833;-72
2022/07/04 08:59:51;;;;;;;30.83;28.83;;;23.90;61.50;;;;;;5005692;28;22161;-72
2022/07/04 09:02:20;;;;;;;32.90;30.90;;;23.90;61.30;;;;;;5005553;28;20522;-71
2022/07/04 09:04:47;;;;;;;29.27;27.67;;;23.90;61.20;;;;;;5009450;28;20745;-71
2022/07/04 09:07:14;;;;;;;31.73;29.83;;;23.90;61.00;;;;;;5008442;28;20580;-72
2022/07/04 09:09:42;;;;;;;30.10;28.30;;;24.10;60.90;;;;;;5005081;28;20461;-74
2022/07/04 09:12:11;;;;;;;30.07;28.10;;;24.40;60.70;;;;;;5006603;28;20539;-71
2022/07/04 09:14:39;;;;;;;29.70;27.90;;;24.80;59.60;;;;;;5008981;28;20467;-72
2022/07/04 09:17:06;;;;;;;30.70;29.00;;;25.10;58.40;;;;;;5007008;28;20467;-72
2022/07/04 09:19:34;;;;;;;29.30;27.67;;;25.30;57.60;;;;;;5008142;28;20901;-73
2022/07/04 09:22:10;;;;;;;29.20;27.10;;;25.10;57.80;;;;;;5002570;28;20949;-72
2022/07/04 09:24:48;;;;;;;30.30;28.20;;;25.20;57.90;;;;;;4994088;28;20485;-72
2022/07/04 09:27:31;;;;;;;29.90;28.20;;;25.50;58.90;;;;;;5001634;28;20582;-72
2022/07/04 09:29:59;;;;;;;30.30;28.40;;;25.70;56.90;;;;;;5003561;28;20528;-73
2022/07/04 09:32:35;;;;;;;31.67;29.77;;;25.70;56.50;;;;;;5007661;28;20996;-71
2022/07/04 09:35:03;;;;;;;32.10;30.27;;;25.60;56.50;;;;;;5007761;28;20495;-71
2022/07/04 09:37:42;;;;;;;30.13;28.13;;;25.40;57.10;;;;;;5007926;28;20474;-72
2022/07/04 09:40:11;;;;;;;29.57;27.87;;;25.50;57.30;;;;;;5005746;28;20728;-71
2022/07/04 09:42:41;;;;;;;31.77;29.73;;;25.50;57.50;;;;;;5009034;28;20461;-71
2022/07/04 09:45:11;;;;;;;32.53;30.63;;;25.70;57.10;;;;;;5007533;28;20463;-72
2022/07/04 09:47:39;;;;;;;30.73;28.63;;;25.80;56.90;;;;;;5007443;28;20992;-71
2022/07/04 09:50:08;;;;;;;33.33;31.10;;;25.90;56.40;;;;;;5003838;28;20450;-71
2022/07/04 09:52:50;;;;;;;30.43;28.73;;;25.90;56.50;;;;;;5007492;28;20563;-72
2022/07/04 09:55:26;;;;;;;29.77;28.07;;;26.10;56.90;;;;;;5007198;28;20460;-72
2022/07/04 09:57:55;;;;;;;30.80;28.90;;;26.40;56.20;;;;;;5009095;28;20643;-72
2022/07/04 10:00:26;;;;;;;30.10;28.40;;;26.60;54.60;;;;;;5007086;28;20552;-75
2022/07/04 10:02:54;;;;;;;32.10;30.30;;;26.40;54.50;;;;;;5007692;28;21071;-72
2022/07/04 10:05:24;;;;;;;30.57;28.77;;;26.50;54.80;;;;;;5005924;28;20559;-73
2022/07/04 10:07:51;;;;;;;31.37;29.57;;;26.70;54.30;;;;;;5006536;28;21101;-72
2022/07/04 10:10:24;;;;;;;29.87;28.23;;;26.70;53.60;;;;;;5007203;28;20459;-72
2022/07/04 10:12:51;;;;;;;31.37;29.37;;;26.70;52.90;;;;;;5007374;28;20492;-73
2022/07/04 10:15:20;;;;;;;32.10;30.03;;;26.50;53.00;;;;;;5006682;28;20468;-73
2022/07/04 10:17:47;;;;;;;33.93;31.70;;;26.50;53.70;;;;;;5005837;28;20487;-74
2022/07/04 10:20:14;;;;;;;30.40;28.60;;;26.40;53.10;;;;;;5007873;28;20488;-72
2022/07/04 10:22:41;;;;;;;29.20;27.40;;;26.30;54.10;;;;;;5004234;28;20464;-72
2022/07/04 10:25:10;;;;;;;28.43;26.77;;;26.20;53.90;;;;;;5008217;28;20896;-72
2022/07/04 10:27:38;;;;;;;31.73;29.70;;;26.30;53.80;;;;;;5007494;28;21077;-73
2022/07/04 10:30:07;;;;;;;30.17;28.40;;;26.50;53.20;;;;;;5005752;28;20465;-71
2022/07/04 10:32:36;;;;;;;31.83;29.73;;;26.40;53.90;;;;;;4999298;28;20515;-71
2022/07/04 10:35:04;;;;;;;31.50;29.70;;;26.50;54.90;;;;;;5007727;28;20553;-72
2022/07/04 10:38:05;;;;;;;31.30;29.50;;;26.40;54.40;;;;;;5005738;28;20480;-72
2022/07/04 10:40:46;;;;;;;32.00;30.10;;;26.60;54.40;;;;;;5003879;28;21032;-71
2022/07/04 10:44:02;;;;;;;31.17;29.27;;;26.80;53.70;;;;;;5006665;28;20479;-72
2022/07/04 10:46:34;;;;;;;33.77;31.67;;;26.90;53.30;;;;;;5004969;28;20560;-72
2022/07/04 10:49:04;;;;;;;31.40;29.47;;;27.10;53.00;;;;;;5007311;28;20572;-72
2022/07/04 10:51:41;;;;;;;31.13;29.23;;;27.20;53.00;;;;;;5004270;28;20465;-72
2022/07/04 10:54:10;;;;;;;32.73;30.43;;;27.20;52.30;;;;;;5007662;28;20465;-72
2022/07/04 10:56:54;;;;;;;32.80;30.43;;;27.10;53.10;;;;;;5007115;28;20556;-74
2022/07/04 10:59:25;;;;;;;34.00;32.07;;;27.30;53.10;;;;;;5008371;28;20803;-71
2022/07/04 11:01:58;;;;;;;31.80;30.20;;;27.50;52.80;;;;;;5005347;28;20460;-73
2022/07/04 11:04:51;;;;;;;31.20;29.00;;;27.80;52.20;;;;;;5002829;28;20476;-71
2022/07/04 11:07:20;;;;;;;29.90;28.03;;;28.00;51.60;;;;;;5004281;28;20520;-71
2022/07/04 11:10:07;;;;;;;29.40;27.60;;;28.00;50.70;;;;;;5007121;28;20453;-72
2022/07/04 11:12:52;;;;;;;29.63;27.93;;;28.10;50.90;;;;;;5004677;28;20512;-72
2022/07/04 11:15:40;;;;;;;30.73;28.93;;;28.10;50.30;;;;;;5007331;28;20567;-72
2022/07/04 11:18:11;;;;;;;30.60;28.80;;;27.50;51.40;;;;;;5003783;28;20512;-72
2022/07/04 11:20:45;;;;;;;30.00;28.20;;;27.40;51.50;;;;;;5007820;28;20812;-72
2022/07/04 11:23:14;;;;;;;31.40;29.30;;;27.10;52.80;;;;;;5006387;28;20457;-71
2022/07/04 11:25:44;;;;;;;29.40;27.60;;;27.20;53.00;;;;;;4999008;28;20470;-74
2022/07/04 11:28:19;;;;;;;31.93;30.03;;;27.10;53.20;;;;;;4994775;28;20571;-72
2022/07/04 11:30:49;;;;;;;30.90;28.90;;;27.30;53.10;;;;;;5005147;28;20460;-72
2022/07/04 11:33:19;;;;;;;35.50;33.37;;;27.30;52.40;;;;;;5006477;28;20732;-71
2022/07/04 11:36:03;;;;;;;33.90;31.50;;;27.30;52.30;;;;;;5005685;28;20548;-72
2022/07/04 11:38:48;;;;;;;31.10;29.20;;;27.20;52.30;;;;;;5006149;28;20506;-71
2022/07/04 11:46:51;;;;;;;30.67;28.90;;;26.90;53.50;;;;;;5009851;28;20460;-71
2022/07/04 11:49:19;;;;;;;35.20;32.77;;;27.10;53.50;;;;;;5011351;28;20547;-72
2022/07/04 11:51:49;;;;;;;32.80;30.63;;;27.30;52.70;;;;;;5010355;28;20504;-72
2022/07/04 11:54:18;;;;;;;30.77;28.87;;;27.40;52.10;;;;;;5008385;28;20459;-71
2022/07/04 11:56:44;;;;;;;29.30;27.63;;;27.30;52.30;;;;;;5004782;28;20471;-72
2022/07/04 11:59:14;;;;;;;35.17;32.93;;;26.90;53.00;;;;;;5010518;28;20917;-71
2022/07/04 12:01:42;;;;;;;32.53;30.63;;;26.90;53.20;;;;;;5014447;28;20512;-71
2022/07/04 12:04:16;;;;;;;33.13;31.10;;;26.90;53.40;;;;;;5009409;28;20467;-72
2022/07/04 12:06:44;;;;;;;30.97;29.27;;;26.80;53.80;;;;;;5005880;28;20543;-71
2022/07/04 12:09:15;;;;;;;33.00;31.10;;;26.90;53.50;;;;;;5006600;28;20532;-72
2022/07/04 12:11:55;;;;;;;33.37;31.57;;;26.90;53.10;;;;;;5009404;28;20496;-70
2022/07/04 12:14:22;;;;;;;30.50;28.80;;;27.00;53.90;;;;;;5011375;28;20547;-69
2022/07/04 12:16:49;;;;;;;33.07;31.17;;;27.20;52.40;;;;;;5008657;28;20470;-69
2022/07/04 12:19:16;;;;;;;34.07;31.97;;;27.20;52.80;;;;;;5009171;28;20464;-69
2022/07/04 12:21:44;;;;;;;33.43;31.43;;;27.30;52.60;;;;;;5010596;28;20489;-69
2022/07/04 12:24:14;;;;;;;30.83;29.07;;;27.50;52.40;;;;;;5008227;28;20476;-69
2022/07/04 12:26:48;;;;;;;31.00;29.30;;;27.60;52.30;;;;;;5010070;28;20531;-69
2022/07/04 12:29:23;;;;;;;32.73;30.70;;;27.90;51.90;;;;;;5006363;28;20547;-69
2022/07/04 12:31:53;;;;;;;37.10;34.57;;;28.10;50.90;;;;;;5007438;28;20457;-69
2022/07/04 12:34:20;;;;;;;31.47;29.67;;;28.30;51.20;;;;;;5010325;28;20478;-72
2022/07/04 12:36:51;;;;;;;31.37;29.67;;;28.30;50.50;;;;;;5008821;28;20473;-73
2022/07/04 12:39:30;;;;;;;31.30;29.30;;;28.20;49.70;;;;;;5007626;28;20457;-71
2022/07/04 12:42:08;;;;;;;33.80;31.63;;;28.00;50.50;;;;;;5010901;28;20461;-71
2022/07/04 12:44:35;;;;;;;29.80;28.10;;;27.90;50.30;;;;;;5006847;28;20456;-73
2022/07/04 12:47:04;;;;;;;31.70;29.80;;;28.00;50.80;;;;;;5003376;28;21029;-72
2022/07/04 12:49:31;;;;;;;36.03;34.13;;;28.20;51.10;;;;;;5004671;28;20515;-73
2022/07/04 12:52:09;;;;;;;31.83;29.83;;;28.40;50.20;;;;;;5006866;28;20645;-71